createdAt,value
2019-03-30T00:02:14.888Z,64.60
2019-03-30T00:04:43.298Z,64.70
2019-03-30T00:07:12.026Z,64.70
2019-03-30T00:09:40.428Z,64.80
2019-03-30T00:12:08.828Z,65.00
2019-03-30T00:14:37.277Z,65.00
2019-03-30T00:17:06.877Z,65.10
2019-03-30T00:19:35.576Z,65.10
2019-03-30T00:22:04.632Z,65.20
2019-03-30T00:24:33.254Z,65.30
2019-03-30T00:27:01.650Z,65.40
2019-03-30T00:29:30.086Z,65.40
2019-03-30T00:31:59.810Z,65.40
2019-03-30T00:34:28.218Z,65.50
2019-03-30T00:36:57.010Z,65.60
2019-03-30T00:39:26.221Z,65.60
2019-03-30T00:41:54.611Z,65.70
2019-03-30T00:44:23.277Z,65.60
2019-03-30T00:46:51.971Z,65.50
2019-03-30T00:49:20.662Z,65.70
2019-03-30T00:51:49.072Z,65.90
2019-03-30T00:54:17.771Z,66.00
2019-03-30T00:56:46.151Z,66.20
2019-03-30T00:59:14.928Z,66.20
2019-03-30T01:01:43.554Z,66.20
2019-03-30T01:04:12.307Z,66.30
2019-03-30T01:06:40.738Z,66.40
2019-03-30T01:09:09.995Z,66.40
2019-03-30T01:11:38.626Z,66.50
2019-03-30T01:14:07.282Z,66.60
2019-03-30T01:16:35.818Z,66.60
2019-03-30T01:19:04.655Z,66.50
2019-03-30T01:21:33.090Z,66.60
2019-03-30T01:24:01.488Z,66.60
2019-03-30T01:26:30.198Z,66.60
2019-03-30T01:28:59.232Z,66.70
2019-03-30T01:31:27.888Z,66.80
2019-03-30T01:33:56.286Z,66.80
2019-03-30T01:36:25.054Z,66.70
2019-03-30T01:38:53.458Z,66.70
2019-03-30T01:41:22.142Z,66.80
2019-03-30T01:43:50.703Z,66.90
2019-03-30T01:46:19.144Z,66.90
2019-03-30T01:48:47.505Z,66.80
2019-03-30T01:51:16.487Z,66.80
2019-03-30T01:53:44.987Z,67.10
2019-03-30T01:56:13.378Z,67.10
2019-03-30T01:58:41.810Z,67.30
2019-03-30T02:01:10.269Z,67.10
2019-03-30T02:03:38.654Z,67.20
2019-03-30T02:06:07.073Z,67.10
2019-03-30T02:08:35.468Z,67.20
2019-03-30T02:11:03.982Z,67.40
2019-03-30T02:13:32.948Z,67.40
2019-03-30T02:16:01.638Z,67.40
2019-03-30T02:18:30.337Z,67.40
2019-03-30T02:20:58.754Z,67.40
2019-03-30T02:23:28.091Z,67.50
2019-03-30T02:25:56.489Z,67.60
2019-03-30T02:28:24.924Z,67.50
2019-03-30T02:30:53.320Z,67.60
2019-03-30T02:33:21.713Z,67.60
2019-03-30T02:35:50.442Z,67.70
2019-03-30T02:38:19.129Z,67.70
2019-03-30T02:40:47.753Z,67.70
2019-03-30T02:43:16.150Z,67.90
2019-03-30T02:45:44.538Z,68.00
2019-03-30T02:48:12.938Z,68.00
2019-03-30T02:50:50.092Z,68.20
2019-03-30T02:53:11.718Z,68.20
2019-03-30T02:55:40.377Z,68.40
2019-03-30T02:58:09.055Z,68.50
2019-03-30T03:00:37.854Z,68.50
2019-03-30T03:03:06.242Z,68.50
2019-03-30T03:05:35.087Z,68.50
2019-03-30T03:08:04.170Z,68.60
2019-03-30T03:10:33.131Z,68.60
2019-03-30T03:13:01.934Z,68.60
2019-03-30T03:15:30.602Z,68.60
2019-03-30T03:17:59.306Z,68.70
2019-03-30T03:20:27.992Z,68.90
2019-03-30T03:22:56.687Z,69.00
2019-03-30T03:25:25.383Z,69.10
2019-03-30T03:27:54.055Z,69.00
2019-03-30T03:30:24.175Z,69.10
2019-03-30T03:32:52.575Z,69.20
2019-03-30T03:35:22.445Z,69.10
2019-03-30T03:37:51.131Z,69.00
2019-03-30T03:40:19.516Z,68.80
2019-03-30T03:42:48.241Z,68.80
2019-03-30T03:45:16.629Z,68.80
2019-03-30T03:47:45.020Z,68.70
2019-03-30T03:50:16.495Z,68.70
2019-03-30T03:52:45.267Z,68.80
2019-03-30T03:55:13.641Z,68.90
2019-03-30T03:57:44.207Z,69.00
2019-03-30T04:00:12.749Z,69.30
2019-03-30T04:02:42.873Z,69.40
2019-03-30T04:05:11.499Z,69.40
2019-03-30T04:07:43.057Z,69.60
2019-03-30T04:10:11.631Z,69.70
2019-03-30T04:12:43.966Z,69.80
2019-03-30T04:15:15.434Z,69.80
2019-03-30T04:17:44.715Z,69.70
2019-03-30T04:20:15.507Z,69.80
2019-03-30T04:22:43.897Z,69.90
2019-03-30T04:25:13.917Z,69.80
2019-03-30T04:27:43.728Z,69.70
2019-03-30T04:30:13.106Z,69.50
2019-03-30T04:32:42.799Z,69.40
2019-03-30T04:35:11.234Z,69.50
2019-03-30T04:37:39.651Z,69.60
2019-03-30T04:40:09.580Z,69.60
2019-03-30T04:42:38.342Z,69.70
2019-03-30T04:45:08.384Z,70.00
2019-03-30T04:47:36.841Z,70.00
2019-03-30T04:50:06.290Z,69.70
2019-03-30T04:52:34.715Z,69.80
2019-03-30T04:55:03.919Z,70.00
2019-03-30T04:57:32.362Z,70.20
2019-03-30T05:00:01.109Z,70.20
2019-03-30T05:02:29.787Z,70.30
2019-03-30T05:04:58.410Z,70.40
2019-03-30T05:07:26.809Z,70.50
2019-03-30T05:09:55.536Z,70.30
2019-03-30T05:12:24.415Z,70.30
2019-03-30T05:14:52.880Z,70.30
2019-03-30T05:17:21.594Z,70.40
2019-03-30T05:19:50.005Z,70.40
2019-03-30T05:22:18.404Z,70.50
2019-03-30T05:24:46.810Z,70.60
2019-03-30T05:27:15.534Z,70.50
2019-03-30T05:29:44.000Z,70.50
2019-03-30T05:32:12.396Z,70.40
2019-03-30T05:34:40.813Z,70.30
2019-03-30T05:37:09.254Z,70.20
2019-03-30T05:39:38.005Z,70.30
2019-03-30T05:42:06.615Z,70.30
2019-03-30T05:44:35.351Z,70.40
2019-03-30T05:47:03.747Z,70.00
2019-03-30T05:49:32.883Z,70.10
2019-03-30T05:52:02.031Z,70.10
2019-03-30T05:54:30.708Z,70.20
2019-03-30T05:56:59.209Z,70.10
2019-03-30T05:59:27.603Z,70.10
2019-03-30T06:01:55.999Z,69.60
2019-03-30T06:04:24.409Z,69.60
2019-03-30T06:06:52.802Z,69.50
2019-03-30T06:09:21.204Z,69.50
2019-03-30T06:11:50.869Z,69.70
2019-03-30T06:14:19.518Z,69.70
2019-03-30T06:16:48.216Z,69.60
2019-03-30T06:19:16.643Z,69.80
2019-03-30T06:21:45.043Z,70.10
2019-03-30T06:24:13.787Z,69.90
2019-03-30T06:26:42.395Z,69.90
2019-03-30T06:29:11.041Z,70.20
2019-03-30T06:31:39.517Z,70.20
2019-03-30T06:34:09.143Z,70.20
2019-03-30T06:36:37.541Z,70.50
2019-03-30T06:39:06.406Z,70.70
2019-03-30T06:41:34.822Z,70.80
2019-03-30T06:44:03.657Z,70.90
2019-03-30T06:46:32.307Z,70.90
2019-03-30T06:49:00.715Z,71.20
2019-03-30T06:51:29.368Z,71.40
2019-03-30T06:53:57.758Z,71.30
2019-03-30T06:56:26.472Z,71.30
2019-03-30T06:58:54.863Z,71.30
2019-03-30T07:01:24.345Z,71.10
2019-03-30T07:03:53.211Z,70.90
2019-03-30T07:06:22.647Z,70.80
2019-03-30T07:08:54.204Z,70.70
2019-03-30T07:11:25.331Z,70.80
2019-03-30T07:13:56.805Z,70.80
2019-03-30T07:16:28.633Z,70.70
2019-03-30T07:18:59.629Z,70.70
2019-03-30T07:21:28.194Z,70.60
2019-03-30T07:23:56.859Z,70.50
2019-03-30T07:26:25.313Z,70.30
2019-03-30T07:28:54.047Z,70.20
2019-03-30T07:31:22.939Z,69.80
2019-03-30T07:33:51.366Z,69.50
2019-03-30T07:36:20.010Z,69.20
2019-03-30T07:38:48.416Z,69.20
2019-03-30T07:41:16.868Z,68.70
2019-03-30T07:43:45.260Z,68.10
2019-03-30T07:46:14.250Z,67.70
2019-03-30T07:48:42.677Z,67.50
2019-03-30T07:51:11.083Z,67.40
2019-03-30T07:53:44.772Z,67.00
2019-03-30T07:56:10.088Z,66.90
2019-03-30T07:58:38.640Z,66.90
2019-03-30T08:01:07.467Z,66.50
2019-03-30T08:03:36.031Z,66.30
2019-03-30T08:06:04.609Z,66.00
2019-03-30T08:08:33.019Z,65.70
2019-03-30T08:11:02.185Z,65.50
2019-03-30T08:13:30.874Z,65.80
2019-03-30T08:15:59.274Z,65.70
2019-03-30T08:18:28.044Z,65.50
2019-03-30T08:20:56.444Z,65.50
2019-03-30T08:23:25.128Z,65.40
2019-03-30T08:25:53.589Z,64.50
2019-03-30T08:28:21.998Z,64.20
2019-03-30T08:30:50.884Z,63.80
2019-03-30T08:33:20.746Z,63.50
2019-03-30T08:35:49.477Z,62.90
2019-03-30T08:38:17.882Z,62.90
2019-03-30T08:40:46.559Z,62.40
2019-03-30T08:43:15.074Z,62.00
2019-03-30T08:45:43.476Z,61.70
2019-03-30T08:48:12.750Z,61.40
2019-03-30T08:50:41.160Z,61.10
2019-03-30T08:53:09.570Z,60.20
2019-03-30T08:55:38.025Z,59.60
2019-03-30T08:58:06.648Z,59.10
2019-03-30T09:00:42.832Z,58.60
2019-03-30T09:03:11.822Z,58.30
2019-03-30T09:05:40.223Z,57.90
2019-03-30T09:08:09.097Z,57.50
2019-03-30T09:10:37.568Z,57.00
2019-03-30T09:13:06.004Z,56.80
2019-03-30T09:15:34.820Z,56.50
2019-03-30T09:18:03.269Z,56.30
2019-03-30T09:20:31.962Z,55.70
2019-03-30T09:23:00.481Z,55.70
2019-03-30T09:25:29.129Z,55.50
2019-03-30T09:27:57.812Z,55.10
2019-03-30T09:30:26.615Z,54.20
2019-03-30T09:32:55.510Z,53.60
2019-03-30T09:35:23.914Z,52.90
2019-03-30T09:37:53.199Z,52.50
2019-03-30T09:40:21.755Z,51.30
2019-03-30T09:42:50.185Z,50.40
2019-03-30T09:45:18.831Z,49.60
2019-03-30T09:47:47.543Z,48.30
2019-03-30T09:50:16.557Z,47.00
2019-03-30T09:52:45.343Z,46.60
2019-03-30T09:55:14.214Z,45.70
2019-03-30T09:57:42.622Z,44.80
2019-03-30T10:00:11.871Z,43.70
2019-03-30T10:02:40.274Z,43.00
2019-03-30T10:05:09.031Z,42.40
2019-03-30T10:07:37.534Z,41.90
2019-03-30T10:10:07.532Z,41.50
2019-03-30T10:12:37.207Z,41.00
2019-03-30T10:15:08.077Z,40.10
2019-03-30T10:17:36.474Z,39.90
2019-03-30T10:20:06.685Z,39.60
2019-03-30T10:22:35.133Z,39.10
2019-03-30T10:25:04.779Z,38.00
2019-03-30T10:27:33.432Z,38.10
2019-03-30T10:30:01.881Z,37.80
2019-03-30T10:32:30.317Z,36.70
2019-03-30T10:34:58.729Z,36.70
2019-03-30T10:37:27.189Z,36.70
2019-03-30T10:39:55.689Z,36.60
2019-03-30T10:42:24.361Z,36.60
2019-03-30T10:44:53.463Z,36.30
2019-03-30T10:47:22.759Z,35.80
2019-03-30T10:49:51.165Z,36.10
2019-03-30T10:52:20.426Z,36.20
2019-03-30T10:54:52.931Z,36.50
2019-03-30T10:57:18.965Z,36.50
2019-03-30T10:59:48.303Z,36.50
2019-03-30T11:02:17.054Z,36.90
2019-03-30T11:04:45.512Z,37.10
2019-03-30T11:07:14.542Z,37.20
2019-03-30T11:09:43.043Z,37.30
2019-03-30T11:12:11.447Z,37.00
2019-03-30T11:14:39.876Z,37.00
2019-03-30T11:17:08.284Z,36.70
2019-03-30T11:19:36.971Z,36.90
2019-03-30T11:22:05.967Z,36.80
2019-03-30T11:24:34.373Z,36.80
2019-03-30T11:27:02.785Z,36.70
2019-03-30T11:29:31.716Z,36.70
2019-03-30T11:32:00.410Z,37.30
2019-03-30T11:34:29.298Z,37.20
2019-03-30T11:36:58.090Z,37.30
2019-03-30T11:39:26.774Z,37.20
2019-03-30T11:41:55.178Z,37.50
2019-03-30T11:44:23.874Z,37.70
2019-03-30T11:46:52.279Z,37.60
2019-03-30T11:49:20.688Z,37.80
2019-03-30T11:51:49.127Z,37.80
2019-03-30T11:54:18.126Z,38.30
2019-03-30T11:56:46.539Z,38.70
2019-03-30T11:59:14.944Z,38.60
2019-03-30T12:01:43.503Z,38.20
2019-03-30T12:04:11.913Z,38.30
2019-03-30T12:06:40.636Z,38.20
2019-03-30T12:09:09.526Z,38.70
2019-03-30T12:11:38.422Z,38.90
2019-03-30T12:14:08.002Z,39.20
2019-03-30T12:16:36.407Z,39.10
2019-03-30T12:19:05.026Z,39.30
2019-03-30T12:21:33.496Z,39.30
2019-03-30T12:24:02.207Z,39.10
2019-03-30T12:26:30.869Z,39.30
2019-03-30T12:28:59.587Z,39.20
2019-03-30T12:31:28.266Z,39.20
2019-03-30T12:33:57.148Z,39.00
2019-03-30T12:36:27.026Z,39.00
2019-03-30T12:38:55.500Z,38.60
2019-03-30T12:41:23.906Z,38.60
2019-03-30T12:43:52.336Z,38.40
2019-03-30T12:46:20.746Z,37.90
2019-03-30T12:48:49.165Z,38.00
2019-03-30T12:51:17.597Z,37.40
2019-03-30T12:53:50.480Z,37.00
2019-03-30T12:56:17.422Z,37.50
2019-03-30T12:58:46.030Z,37.40
2019-03-30T13:03:45.518Z,37.90
2019-03-30T13:06:14.018Z,37.80
2019-03-30T13:08:42.436Z,37.30
2019-03-30T13:11:11.193Z,37.00
2019-03-30T13:13:39.636Z,37.40
2019-03-30T13:16:08.049Z,37.40
2019-03-30T13:18:36.466Z,37.60
2019-03-30T13:21:04.913Z,37.90
2019-03-30T13:23:33.613Z,37.90
2019-03-30T13:26:03.773Z,36.50
2019-03-30T13:28:32.969Z,36.30
2019-03-30T13:31:01.844Z,36.50
2019-03-30T13:33:30.638Z,36.10
2019-03-30T13:35:59.091Z,35.70
2019-03-30T13:38:27.823Z,35.60
2019-03-30T13:40:56.215Z,35.10
2019-03-30T13:43:24.794Z,35.20
2019-03-30T13:45:53.230Z,34.50
2019-03-30T13:48:21.673Z,35.20
2019-03-30T13:50:51.359Z,35.10
2019-03-30T13:53:20.146Z,35.00
2019-03-30T13:55:48.549Z,34.30
2019-03-30T13:58:16.995Z,34.40
2019-03-30T14:00:45.397Z,34.10
2019-03-30T14:03:14.096Z,34.00
2019-03-30T14:05:42.712Z,34.90
2019-03-30T14:08:11.374Z,32.50
2019-03-30T14:10:39.783Z,32.00
2019-03-30T14:13:08.449Z,30.70
2019-03-30T14:15:37.144Z,29.30
2019-03-30T14:18:05.539Z,28.60
2019-03-30T14:20:34.057Z,28.60
2019-03-30T14:23:02.455Z,28.20
2019-03-30T14:25:31.175Z,28.20
2019-03-30T14:27:59.979Z,28.70
2019-03-30T14:30:28.649Z,27.80
2019-03-30T14:32:57.359Z,27.80
2019-03-30T14:35:26.044Z,27.60
2019-03-30T14:37:54.466Z,27.60
2019-03-30T14:40:23.123Z,27.70
2019-03-30T14:42:51.810Z,28.00
2019-03-30T14:45:20.319Z,28.40
2019-03-30T14:47:48.888Z,29.20
2019-03-30T14:50:18.173Z,29.20
2019-03-30T14:52:46.873Z,29.00
2019-03-30T14:55:15.558Z,29.00
2019-03-30T14:57:44.253Z,29.30
2019-03-30T15:00:13.353Z,29.70
2019-03-30T15:02:42.170Z,29.50
2019-03-30T15:05:11.234Z,29.40
2019-03-30T15:07:39.638Z,28.90
2019-03-30T15:10:09.475Z,29.10
2019-03-30T15:12:38.465Z,29.10
2019-03-30T15:15:09.151Z,29.20
2019-03-30T15:17:40.660Z,29.10
2019-03-30T15:20:11.781Z,29.50
2019-03-30T15:22:40.465Z,29.50
2019-03-30T15:25:09.965Z,30.10
2019-03-30T15:27:38.572Z,30.90
2019-03-30T15:30:10.525Z,30.90
2019-03-30T15:32:38.917Z,31.80
2019-03-30T15:35:08.814Z,32.30
2019-03-30T15:37:37.210Z,31.00
2019-03-30T15:40:08.585Z,30.80
2019-03-30T15:42:40.127Z,31.10
2019-03-30T15:45:09.844Z,32.20
2019-03-30T15:47:38.533Z,32.40
2019-03-30T15:50:08.113Z,32.80
2019-03-30T15:52:36.927Z,33.60
2019-03-30T15:55:10.842Z,33.10
2019-03-30T15:57:40.084Z,32.90
2019-03-30T16:00:11.382Z,32.80
2019-03-30T16:02:40.073Z,32.50
2019-03-30T16:05:09.621Z,32.20
2019-03-30T16:07:38.352Z,32.50
2019-03-30T16:10:07.402Z,32.60
2019-03-30T16:12:36.292Z,32.40
2019-03-30T16:15:05.842Z,31.50
2019-03-30T16:17:34.312Z,31.10
2019-03-30T16:20:03.694Z,31.20
2019-03-30T16:22:32.698Z,32.20
2019-03-30T16:25:01.745Z,32.40
2019-03-30T16:27:30.670Z,32.80
2019-03-30T16:29:59.376Z,33.00
2019-03-30T16:32:27.778Z,32.80
2019-03-30T16:34:56.181Z,33.00
2019-03-30T16:37:24.912Z,33.70
2019-03-30T16:39:53.409Z,33.60
2019-03-30T16:42:21.826Z,33.80
2019-03-30T16:44:50.492Z,34.00
2019-03-30T16:47:19.989Z,34.10
2019-03-30T16:49:48.441Z,34.70
2019-03-30T16:52:17.148Z,35.10
2019-03-30T16:54:46.363Z,35.00
2019-03-30T16:57:14.791Z,35.30
2019-03-30T16:59:44.545Z,35.50
2019-03-30T17:02:12.956Z,35.80
2019-03-30T17:04:41.391Z,35.80
2019-03-30T17:07:10.771Z,35.60
2019-03-30T17:09:39.259Z,35.80
2019-03-30T17:12:08.036Z,35.80
2019-03-30T17:14:36.439Z,35.80
2019-03-30T17:17:06.011Z,35.80
2019-03-30T17:19:34.605Z,35.80
2019-03-30T17:22:03.710Z,35.60
2019-03-30T17:24:32.486Z,35.70
2019-03-30T17:27:01.120Z,36.20
2019-03-30T17:29:29.558Z,36.40
2019-03-30T17:31:58.219Z,36.50
2019-03-30T17:34:26.683Z,36.60
2019-03-30T17:36:55.442Z,36.40
2019-03-30T17:39:24.335Z,36.20
2019-03-30T17:41:52.918Z,36.30
2019-03-30T17:44:21.594Z,36.20
2019-03-30T17:46:50.012Z,36.80
2019-03-30T17:49:19.737Z,36.70
2019-03-30T17:51:48.295Z,37.00
2019-03-30T17:54:17.170Z,37.10
2019-03-30T17:56:46.023Z,37.00
2019-03-30T17:59:14.598Z,37.40
2019-03-30T18:01:44.020Z,37.50
2019-03-30T18:04:12.765Z,37.80
2019-03-30T18:06:41.171Z,38.00
2019-03-30T18:09:09.850Z,38.30
2019-03-30T18:11:38.539Z,38.60
2019-03-30T18:14:07.332Z,38.70
2019-03-30T18:16:36.077Z,39.50
2019-03-30T18:19:04.606Z,39.90
2019-03-30T18:21:32.994Z,40.10
2019-03-30T18:24:01.417Z,40.60
2019-03-30T18:26:30.436Z,40.70
2019-03-30T18:28:59.151Z,40.70
2019-03-30T18:31:28.059Z,41.10
2019-03-30T18:33:57.155Z,41.00
2019-03-30T18:36:27.293Z,41.40
2019-03-30T18:39:08.701Z,41.50
2019-03-30T18:41:28.350Z,41.70
2019-03-30T18:43:57.086Z,41.80
2019-03-30T18:46:25.534Z,42.50
2019-03-30T18:48:54.411Z,42.60
2019-03-30T18:51:24.013Z,42.40
2019-03-30T18:53:54.132Z,42.40
2019-03-30T18:56:22.845Z,42.70
2019-03-30T18:58:51.255Z,42.70
2019-03-30T19:01:19.913Z,42.70
2019-03-30T19:03:48.475Z,43.00
2019-03-30T19:06:16.891Z,43.20
2019-03-30T19:08:45.766Z,43.30
2019-03-30T19:11:14.229Z,43.20
2019-03-30T19:13:43.594Z,43.70
2019-03-30T19:16:12.446Z,44.00
2019-03-30T19:18:42.112Z,44.20
2019-03-30T19:21:10.889Z,44.40
2019-03-30T19:23:39.529Z,44.60
2019-03-30T19:26:07.990Z,45.40
2019-03-30T19:28:36.396Z,45.40
2019-03-30T19:31:05.109Z,45.10
2019-03-30T19:33:33.563Z,45.20
2019-03-30T19:36:03.197Z,45.90
2019-03-30T19:38:31.712Z,45.60
2019-03-30T19:41:00.162Z,45.30
2019-03-30T19:43:28.575Z,45.30
2019-03-30T19:45:57.554Z,45.50
2019-03-30T19:48:26.168Z,45.80
2019-03-30T19:50:54.649Z,46.10
2019-03-30T19:53:23.046Z,46.40
2019-03-30T19:55:51.502Z,46.40
2019-03-30T19:58:19.907Z,46.80
2019-03-30T20:00:48.713Z,46.60
2019-03-30T20:03:17.492Z,46.80
2019-03-30T20:05:46.441Z,46.70
2019-03-30T20:08:14.852Z,46.80
2019-03-30T20:10:43.363Z,47.10
2019-03-30T20:13:11.851Z,47.30
2019-03-30T20:15:40.226Z,47.70
2019-03-30T20:18:08.681Z,47.80
2019-03-30T20:20:37.367Z,48.00
2019-03-30T20:23:06.081Z,48.00
2019-03-30T20:25:34.851Z,48.00
2019-03-30T20:28:03.286Z,48.10
2019-03-30T20:30:31.924Z,48.50
2019-03-30T20:33:00.882Z,48.80
2019-03-30T20:35:29.731Z,48.70
2019-03-30T20:37:58.142Z,48.80
2019-03-30T20:40:26.598Z,49.30
2019-03-30T20:42:55.254Z,49.30
2019-03-30T20:45:23.966Z,49.50
2019-03-30T20:47:52.865Z,49.80
2019-03-30T20:50:21.565Z,49.90
2019-03-30T20:52:49.970Z,50.20
2019-03-30T20:55:18.752Z,50.20
2019-03-30T20:57:47.432Z,50.40
2019-03-30T21:00:16.434Z,50.20
2019-03-30T21:02:44.836Z,50.10
2019-03-30T21:05:13.608Z,50.10
2019-03-30T21:07:42.095Z,49.80
2019-03-30T21:10:11.216Z,50.00
2019-03-30T21:12:39.636Z,50.20
2019-03-30T21:15:08.763Z,50.20
2019-03-30T21:17:37.511Z,50.20
2019-03-30T21:20:07.181Z,50.10
2019-03-30T21:22:35.980Z,50.30
2019-03-30T21:25:05.917Z,50.40
2019-03-30T21:27:34.331Z,50.50
2019-03-30T21:30:09.006Z,50.60
2019-03-30T21:32:37.451Z,51.00
2019-03-30T21:35:07.712Z,51.10
2019-03-30T21:37:36.385Z,51.50
2019-03-30T21:40:06.611Z,51.20
2019-03-30T21:42:35.222Z,51.50
2019-03-30T21:45:04.976Z,51.60
2019-03-30T21:47:33.934Z,51.60
2019-03-30T21:50:02.427Z,51.60
2019-03-30T21:52:30.833Z,51.80
2019-03-30T21:54:59.328Z,52.20
2019-03-30T21:57:27.749Z,52.40
2019-03-30T22:00:09.044Z,52.40
2019-03-30T22:02:26.346Z,52.60
2019-03-30T22:04:55.041Z,52.70
2019-03-30T22:07:24.148Z,53.10
2019-03-30T22:09:53.335Z,53.10
2019-03-30T22:12:22.056Z,53.30
2019-03-30T22:14:50.742Z,53.60
2019-03-30T22:17:19.284Z,53.70
2019-03-30T22:19:47.669Z,53.90
2019-03-30T22:22:16.683Z,54.10
2019-03-30T22:24:45.330Z,54.00
2019-03-30T22:27:14.075Z,54.30
2019-03-30T22:29:42.767Z,54.50
2019-03-30T22:32:11.201Z,54.50
2019-03-30T22:34:39.624Z,54.90
2019-03-30T22:37:08.045Z,54.70
2019-03-30T22:39:36.471Z,55.00
2019-03-30T22:42:04.886Z,55.10
2019-03-30T22:44:33.406Z,55.00
2019-03-30T22:47:01.856Z,55.30
2019-03-30T22:49:30.261Z,55.20
2019-03-30T22:51:58.669Z,55.20
2019-03-30T22:54:27.096Z,55.40
2019-03-30T22:56:55.507Z,55.50
2019-03-30T22:59:23.928Z,55.20
2019-03-30T23:01:52.362Z,55.40
2019-03-30T23:04:21.074Z,55.40
2019-03-30T23:06:49.658Z,55.60
2019-03-30T23:09:19.178Z,55.40
2019-03-30T23:11:48.630Z,55.70
2019-03-30T23:14:17.040Z,55.80
2019-03-30T23:16:45.843Z,56.10
2019-03-30T23:19:14.241Z,56.00
2019-03-30T23:21:42.639Z,56.40
2019-03-30T23:24:11.101Z,56.80
2019-03-30T23:26:39.529Z,56.70
2019-03-30T23:29:07.947Z,56.90
2019-03-30T23:31:36.399Z,56.90
2019-03-30T23:34:04.842Z,56.90
2019-03-30T23:36:33.253Z,57.10
2019-03-30T23:39:02.017Z,57.20
2019-03-30T23:41:30.908Z,57.40
2019-03-30T23:43:59.571Z,57.70
2019-03-30T23:46:28.581Z,57.70
2019-03-30T23:48:56.992Z,57.70
2019-03-30T23:51:25.394Z,57.80
2019-03-30T23:53:54.625Z,58.00
2019-03-30T23:56:26.099Z,58.30
2019-03-30T23:58:54.581Z,58.50
